Time;durP1;ratioP1;P1;durP2;ratioP2;P2;SDS_P1;SDS_P2;PMS_P1;PMS_P2;Temp;Humidity;BMP_temperature;BMP_pressure;BME280_temperature;BME280_humidity;BME280_pressure;Samples;Min_cycle;Max_cycle;Signal;HPM_P1;HPM_P2
2021/11/29 00:02:08;;;;;;;0.85;0.70;;;3.60;99.90;;;;;;4438807;32;20279;-71
2021/11/29 00:04:34;;;;;;;0.70;0.70;;;3.60;99.90;;;;;;4442238;32;20443;-71
2021/11/29 00:06:59;;;;;;;0.55;0.55;;;3.60;99.90;;;;;;4433914;32;20069;-72
2021/11/29 00:09:25;;;;;;;1.20;1.10;;;3.60;99.90;;;;;;4431016;32;20491;-72
2021/11/29 00:11:50;;;;;;;0.55;0.55;;;3.60;99.90;;;;;;4427622;32;20078;-72
2021/11/29 00:14:16;;;;;;;2.85;0.85;;;3.60;99.90;;;;;;4439499;32;20164;-71
2021/11/29 00:16:41;;;;;;;0.82;0.82;;;3.60;99.90;;;;;;4439331;32;20073;-71
2021/11/29 00:19:07;;;;;;;1.73;1.50;;;3.70;99.90;;;;;;4438246;32;20392;-71
2021/11/29 00:21:34;;;;;;;0.62;0.60;;;3.70;99.90;;;;;;4431805;32;20112;-72
2021/11/29 00:24:00;;;;;;;0.73;0.73;;;3.70;99.90;;;;;;4440769;32;20415;-71
2021/11/29 00:26:27;;;;;;;0.75;0.75;;;3.70;99.90;;;;;;4442176;32;20065;-71
2021/11/29 00:28:53;;;;;;;0.50;0.50;;;3.80;99.90;;;;;;4429351;32;20065;-71
2021/11/29 00:31:18;;;;;;;2.22;1.17;;;3.80;99.90;;;;;;4434247;32;20081;-71
2021/11/29 00:33:44;;;;;;;1.25;1.15;;;3.80;99.90;;;;;;4439692;32;20081;-71
2021/11/29 00:36:09;;;;;;;0.82;0.82;;;3.70;99.90;;;;;;4438618;32;20120;-71
2021/11/29 00:38:35;;;;;;;1.83;0.98;;;3.60;99.90;;;;;;4436833;32;20081;-71
2021/11/29 00:41:00;;;;;;;0.47;0.47;;;3.50;99.90;;;;;;4429518;32;20080;-71
2021/11/29 00:43:27;;;;;;;1.60;1.50;;;3.60;99.90;;;;;;4428165;32;20082;-71
2021/11/29 00:45:52;;;;;;;3.30;1.10;;;3.60;99.90;;;;;;4432184;32;20065;-71
2021/11/29 00:48:18;;;;;;;0.82;0.82;;;3.60;99.90;;;;;;4435047;32;20081;-71
2021/11/29 00:50:43;;;;;;;0.40;0.40;;;3.60;99.90;;;;;;4431500;32;20085;-71
2021/11/29 00:53:11;;;;;;;0.60;0.60;;;3.60;99.90;;;;;;4439639;32;20403;-71
2021/11/29 00:55:38;;;;;;;0.80;0.80;;;3.50;99.90;;;;;;4430486;32;20468;-71
2021/11/29 00:58:05;;;;;;;9.02;1.25;;;3.60;99.90;;;;;;4430634;32;20522;-71
2021/11/29 01:00:32;;;;;;;3.40;1.87;;;3.60;99.90;;;;;;4434628;32;20082;-71
2021/11/29 01:02:59;;;;;;;0.75;0.75;;;3.60;99.90;;;;;;4442883;32;20128;-71
2021/11/29 01:05:24;;;;;;;0.62;0.62;;;3.60;99.90;;;;;;4444353;32;20057;-71
2021/11/29 01:07:51;;;;;;;2.45;1.73;;;3.60;99.90;;;;;;4442686;32;20392;-71
2021/11/29 01:10:17;;;;;;;1.35;0.95;;;3.60;99.90;;;;;;4442441;32;20427;-71
2021/11/29 01:12:43;;;;;;;3.25;1.75;;;3.60;99.90;;;;;;4439359;32;20122;-71
2021/11/29 01:15:12;;;;;;;0.70;0.70;;;3.60;99.90;;;;;;4429554;32;20062;-71
2021/11/29 01:17:38;;;;;;;1.35;1.25;;;3.50;99.90;;;;;;4435415;32;20124;-71
2021/11/29 01:20:06;;;;;;;1.48;0.95;;;3.50;99.90;;;;;;4429364;32;20065;-71
2021/11/29 01:22:32;;;;;;;2.95;1.52;;;3.50;99.90;;;;;;4435213;32;20131;-71
2021/11/29 01:24:58;;;;;;;2.37;1.75;;;3.50;99.90;;;;;;4443859;32;20549;-71
2021/11/29 01:27:23;;;;;;;1.23;1.12;;;3.50;99.90;;;;;;4442617;32;20120;-71
2021/11/29 01:29:49;;;;;;;0.88;0.88;;;3.50;99.90;;;;;;4429209;32;20392;-71
2021/11/29 01:32:14;;;;;;;1.05;1.00;;;3.50;99.90;;;;;;4441923;32;20073;-71
2021/11/29 01:34:40;;;;;;;2.05;1.05;;;3.50;99.90;;;;;;4440599;32;20065;-71
2021/11/29 01:37:05;;;;;;;2.65;0.98;;;3.60;99.90;;;;;;4436119;32;20077;-71
2021/11/29 01:39:31;;;;;;;1.20;1.10;;;3.70;99.90;;;;;;4427411;32;20499;-71
2021/11/29 01:41:57;;;;;;;0.52;0.52;;;3.60;99.90;;;;;;4435139;32;20070;-71
2021/11/29 01:44:22;;;;;;;3.10;2.12;;;3.60;99.90;;;;;;4433238;32;20060;-71
2021/11/29 01:46:48;;;;;;;4.60;1.70;;;3.60;99.90;;;;;;4439168;32;20065;-71
2021/11/29 01:49:14;;;;;;;4.43;1.48;;;3.50;99.90;;;;;;4434319;32;20074;-71
2021/11/29 01:51:40;;;;;;;1.60;1.33;;;3.60;99.90;;;;;;4435945;32;20396;-71
2021/11/29 01:54:06;;;;;;;2.08;1.87;;;3.60;99.90;;;;;;4434830;32;20522;-71
2021/11/29 01:56:31;;;;;;;1.10;1.10;;;3.50;99.90;;;;;;4430316;32;20073;-71
2021/11/29 01:58:57;;;;;;;2.30;1.23;;;3.50;99.90;;;;;;4428512;32;20121;-71
2021/11/29 02:01:25;;;;;;;0.73;0.73;;;3.30;99.90;;;;;;4434135;32;20088;-71
2021/11/29 02:03:56;;;;;;;1.52;1.35;;;3.30;99.90;;;;;;4445021;32;20522;-71
2021/11/29 02:06:24;;;;;;;1.02;0.93;;;3.30;99.90;;;;;;4444544;32;20116;-71
2021/11/29 02:08:50;;;;;;;0.88;0.88;;;3.40;99.90;;;;;;4434433;32;20057;-71
2021/11/29 02:11:16;;;;;;;0.88;0.88;;;3.40;99.90;;;;;;4440164;32;20554;-71
2021/11/29 02:13:42;;;;;;;3.25;1.05;;;3.40;99.90;;;;;;4424616;32;20077;-71
2021/11/29 02:16:08;;;;;;;0.60;0.60;;;3.40;99.90;;;;;;4434306;32;20065;-72
2021/11/29 02:18:40;;;;;;;1.10;0.75;;;3.50;99.90;;;;;;4428401;32;20538;-72
2021/11/29 02:21:13;;;;;;;0.37;0.37;;;3.50;99.90;;;;;;4425015;32;20072;-72
2021/11/29 02:23:41;;;;;;;0.70;0.70;;;3.40;99.90;;;;;;4430144;32;20076;-72
2021/11/29 02:26:08;;;;;;;1.02;0.95;;;3.50;99.90;;;;;;4444283;32;20073;-72
2021/11/29 02:28:36;;;;;;;2.30;1.12;;;3.50;99.90;;;;;;4435297;32;20462;-71
2021/11/29 02:31:07;;;;;;;0.47;0.47;;;3.40;99.90;;;;;;4433412;32;20503;-71
2021/11/29 02:33:32;;;;;;;2.10;1.17;;;3.40;99.90;;;;;;4434323;32;20094;-72
2021/11/29 02:35:58;;;;;;;2.53;1.50;;;3.40;99.90;;;;;;4436722;32;20076;-72
2021/11/29 02:38:24;;;;;;;1.35;0.93;;;3.30;99.90;;;;;;4439989;32;20073;-72
2021/11/29 02:40:50;;;;;;;3.75;1.65;;;3.20;99.90;;;;;;4441183;32;20130;-72
2021/11/29 02:43:16;;;;;;;2.05;1.35;;;3.20;99.90;;;;;;4446522;32;20514;-71
2021/11/29 02:45:41;;;;;;;1.55;1.33;;;3.20;99.90;;;;;;4444446;32;20123;-71
2021/11/29 02:48:07;;;;;;;1.58;0.93;;;3.20;99.90;;;;;;4431652;32;20536;-71
2021/11/29 02:50:35;;;;;;;0.98;0.93;;;3.20;99.90;;;;;;4434566;32;20069;-71
2021/11/29 02:53:05;;;;;;;2.47;1.40;;;3.30;99.90;;;;;;4439811;32;20074;-71
2021/11/29 02:55:32;;;;;;;0.75;0.75;;;3.30;99.90;;;;;;4443015;32;20121;-71
2021/11/29 02:57:57;;;;;;;1.20;1.10;;;3.30;99.90;;;;;;4428846;32;20129;-71
2021/11/29 03:00:23;;;;;;;0.68;0.68;;;3.20;99.90;;;;;;4431758;32;20086;-71
2021/11/29 03:03:09;;;;;;;0.77;0.77;;;3.10;99.90;;;;;;4432585;32;20073;-71
2021/11/29 03:05:35;;;;;;;1.33;1.20;;;3.20;99.90;;;;;;4430813;32;20126;-71
2021/11/29 03:08:01;;;;;;;1.17;1.08;;;3.00;99.90;;;;;;4440882;32;20088;-71
2021/11/29 03:10:27;;;;;;;1.95;1.70;;;3.00;99.90;;;;;;4444690;32;20098;-71
2021/11/29 03:12:52;;;;;;;0.95;0.85;;;3.00;99.90;;;;;;4428251;32;20550;-71
2021/11/29 03:15:18;;;;;;;5.07;1.40;;;3.00;99.90;;;;;;4420188;32;20081;-71
2021/11/29 03:17:43;;;;;;;4.05;1.35;;;3.10;99.90;;;;;;4435434;32;20519;-71
2021/11/29 03:20:10;;;;;;;0.62;0.62;;;3.10;99.90;;;;;;4430388;32;20077;-71
2021/11/29 03:22:36;;;;;;;2.17;1.48;;;3.00;99.90;;;;;;4434563;32;20385;-71
2021/11/29 03:25:02;;;;;;;2.00;1.15;;;3.10;99.90;;;;;;4435426;32;20080;-71
2021/11/29 03:27:27;;;;;;;0.73;0.73;;;3.10;99.90;;;;;;4443277;32;20072;-71
2021/11/29 03:29:53;;;;;;;0.68;0.68;;;3.10;99.90;;;;;;4443786;32;20073;-71
2021/11/29 03:32:20;;;;;;;9.13;1.83;;;3.20;99.90;;;;;;4438255;32;20561;-71
2021/11/29 03:34:46;;;;;;;0.85;0.85;;;3.20;99.90;;;;;;4444996;32;20455;-71
2021/11/29 03:37:11;;;;;;;2.92;0.85;;;3.20;99.90;;;;;;4440283;32;20088;-71
2021/11/29 03:39:37;;;;;;;1.33;1.23;;;3.20;99.90;;;;;;4430950;32;20130;-71
2021/11/29 03:42:05;;;;;;;2.40;0.98;;;3.20;99.90;;;;;;4443931;32;20130;-72
2021/11/29 03:44:32;;;;;;;0.70;0.70;;;3.20;99.90;;;;;;4424834;32;20539;-71
2021/11/29 03:46:57;;;;;;;1.77;1.52;;;3.30;99.90;;;;;;4435408;32;20566;-71
2021/11/29 03:49:26;;;;;;;13.35;2.05;;;3.30;99.90;;;;;;4445642;32;20061;-71
2021/11/29 03:51:52;;;;;;;1.10;1.10;;;3.30;99.90;;;;;;4436961;32;20103;-71
2021/11/29 03:54:18;;;;;;;3.50;1.45;;;3.40;99.90;;;;;;4432459;32;20084;-71
2021/11/29 03:56:45;;;;;;;1.33;1.02;;;3.30;99.90;;;;;;4436682;32;20124;-71
2021/11/29 03:59:10;;;;;;;1.02;1.00;;;3.20;99.90;;;;;;4436811;32;20060;-71
2021/11/29 04:01:36;;;;;;;1.83;1.27;;;3.20;99.90;;;;;;4431915;32;20073;-71
2021/11/29 04:04:03;;;;;;;1.87;1.52;;;3.30;99.90;;;;;;4430876;32;20080;-71
2021/11/29 04:06:29;;;;;;;0.93;0.93;;;3.30;99.90;;;;;;4429525;32;20076;-71
2021/11/29 04:08:55;;;;;;;7.97;1.85;;;3.40;99.90;;;;;;4441896;32;20172;-71
2021/11/29 04:11:20;;;;;;;7.93;2.55;;;3.40;99.90;;;;;;4445756;32;20082;-71
2021/11/29 04:13:47;;;;;;;0.98;0.93;;;3.30;99.90;;;;;;4431675;32;20528;-71
2021/11/29 04:16:15;;;;;;;3.90;1.55;;;3.30;99.90;;;;;;4433967;32;20073;-72
2021/11/29 04:18:41;;;;;;;1.42;0.90;;;3.30;99.90;;;;;;4432485;32;20073;-72
2021/11/29 04:21:07;;;;;;;1.05;0.95;;;3.30;99.90;;;;;;4430310;32;20090;-72
2021/11/29 04:23:33;;;;;;;1.37;1.05;;;3.40;99.90;;;;;;4443777;32;20123;-72
2021/11/29 04:26:01;;;;;;;0.68;0.68;;;3.50;99.90;;;;;;4440180;32;20077;-72
2021/11/29 04:28:27;;;;;;;1.92;1.42;;;3.40;99.90;;;;;;4429646;32;20091;-72
2021/11/29 04:30:52;;;;;;;2.95;2.28;;;3.40;99.90;;;;;;4435527;32;20085;-72
2021/11/29 04:33:18;;;;;;;2.50;1.62;;;3.30;99.90;;;;;;4437377;32;105501;-72
2021/11/29 04:35:44;;;;;;;11.32;1.52;;;3.30;99.90;;;;;;4444377;32;20160;-72
2021/11/29 04:38:10;;;;;;;3.05;1.27;;;3.40;99.90;;;;;;4436576;32;20065;-72
2021/11/29 04:40:36;;;;;;;1.60;1.40;;;3.30;99.90;;;;;;4435120;32;20144;-72
2021/11/29 04:43:02;;;;;;;0.57;0.57;;;3.40;99.90;;;;;;4440848;32;20148;-72
2021/11/29 04:45:27;;;;;;;8.00;3.15;;;3.30;99.90;;;;;;4420057;32;20081;-72
2021/11/29 04:47:53;;;;;;;11.80;2.80;;;3.30;99.90;;;;;;4429332;32;20515;-72
2021/11/29 04:50:19;;;;;;;1.33;0.98;;;3.30;99.90;;;;;;4434631;32;20073;-72
2021/11/29 04:52:44;;;;;;;3.83;1.35;;;3.30;99.90;;;;;;4432958;32;20306;-72
2021/11/29 04:55:12;;;;;;;1.60;1.27;;;3.30;99.90;;;;;;4429973;32;20065;-72
2021/11/29 04:57:38;;;;;;;0.85;0.85;;;3.40;99.90;;;;;;4442853;32;20186;-72
2021/11/29 05:00:08;;;;;;;5.35;1.75;;;3.40;99.90;;;;;;4437995;32;20136;-72
2021/11/29 05:02:34;;;;;;;7.53;1.23;;;3.40;99.90;;;;;;4442654;32;20465;-72
2021/11/29 05:04:59;;;;;;;4.05;1.25;;;3.40;99.90;;;;;;4442825;32;20127;-72
2021/11/29 05:07:25;;;;;;;1.10;1.00;;;3.40;99.90;;;;;;4433048;32;20061;-70
2021/11/29 05:09:51;;;;;;;1.10;1.00;;;3.40;99.90;;;;;;4443617;32;20289;-72
2021/11/29 05:12:17;;;;;;;2.47;1.60;;;3.40;99.90;;;;;;4438170;32;20082;-71
2021/11/29 05:14:44;;;;;;;0.82;0.82;;;3.40;99.90;;;;;;4437494;32;20144;-72
2021/11/29 05:17:10;;;;;;;0.40;0.40;;;3.40;99.90;;;;;;4428648;32;20440;-72
2021/11/29 05:19:36;;;;;;;0.90;0.62;;;3.40;99.90;;;;;;4429214;32;20089;-71
2021/11/29 05:22:02;;;;;;;2.30;1.70;;;3.30;99.90;;;;;;4426083;32;20093;-72
2021/11/29 05:24:28;;;;;;;0.50;0.50;;;3.40;99.90;;;;;;4428863;32;20135;-72
2021/11/29 05:26:55;;;;;;;0.50;0.50;;;3.30;99.90;;;;;;4431873;32;20081;-71
2021/11/29 05:29:20;;;;;;;2.25;1.60;;;3.30;99.90;;;;;;4443638;32;20132;-71
2021/11/29 05:31:46;;;;;;;1.67;1.20;;;3.30;99.90;;;;;;4437737;32;20041;-71
2021/11/29 05:34:13;;;;;;;1.42;1.17;;;3.40;99.90;;;;;;4444519;32;20064;-72
2021/11/29 05:36:39;;;;;;;1.45;1.35;;;3.40;99.90;;;;;;4436718;32;20487;-72
2021/11/29 05:39:05;;;;;;;22.73;1.52;;;3.50;99.90;;;;;;4429175;32;20066;-72
2021/11/29 05:41:31;;;;;;;0.98;0.93;;;3.50;99.90;;;;;;4434989;32;20077;-71
2021/11/29 05:43:56;;;;;;;1.30;1.10;;;3.50;99.90;;;;;;4429056;32;20065;-71
2021/11/29 05:46:22;;;;;;;1.58;1.37;;;3.50;99.90;;;;;;4428915;32;20065;-72
2021/11/29 05:48:49;;;;;;;6.80;1.05;;;3.50;99.90;;;;;;4427927;32;20413;-72
2021/11/29 05:51:15;;;;;;;1.35;1.25;;;3.50;99.90;;;;;;4441323;32;20514;-72
2021/11/29 05:53:40;;;;;;;3.95;1.90;;;3.60;99.90;;;;;;4432878;32;20086;-72
2021/11/29 05:56:08;;;;;;;0.70;0.70;;;3.50;99.90;;;;;;4430017;32;20113;-72
2021/11/29 05:58:34;;;;;;;9.23;2.60;;;3.40;99.90;;;;;;4445861;32;20766;-72
2021/11/29 06:01:03;;;;;;;1.45;0.75;;;3.30;99.90;;;;;;4431336;32;20076;-72
2021/11/29 06:03:29;;;;;;;3.92;1.20;;;3.30;99.90;;;;;;4423239;32;20534;-72
2021/11/29 06:05:54;;;;;;;13.20;1.85;;;3.40;99.90;;;;;;4423711;32;20069;-72
2021/11/29 06:08:20;;;;;;;0.90;0.88;;;3.40;99.90;;;;;;4429335;32;20069;-72
2021/11/29 06:10:45;;;;;;;5.43;1.45;;;3.40;99.90;;;;;;4437923;32;20163;-71
2021/11/29 06:13:11;;;;;;;0.75;0.75;;;3.50;99.90;;;;;;4431322;32;20127;-71
2021/11/29 06:15:36;;;;;;;0.60;0.60;;;3.60;99.90;;;;;;4427014;32;20127;-71
2021/11/29 06:18:02;;;;;;;0.62;0.62;;;3.60;99.90;;;;;;4412219;32;20136;-72
2021/11/29 06:20:28;;;;;;;1.70;0.77;;;3.50;99.90;;;;;;4429704;32;20421;-71
2021/11/29 06:22:55;;;;;;;2.42;1.65;;;3.60;99.90;;;;;;4434675;32;20057;-71
2021/11/29 06:25:23;;;;;;;1.27;0.98;;;3.60;99.90;;;;;;4438044;32;20450;-71
2021/11/29 06:27:49;;;;;;;15.95;1.33;;;3.60;99.90;;;;;;4417293;32;20078;-71
2021/11/29 06:30:16;;;;;;;4.22;1.87;;;3.60;99.90;;;;;;4410961;32;20084;-71
2021/11/29 06:32:42;;;;;;;1.20;1.10;;;3.50;99.90;;;;;;4411532;32;20073;-71
2021/11/29 06:35:09;;;;;;;3.17;2.22;;;3.40;99.90;;;;;;4426842;32;20089;-72
2021/11/29 06:37:37;;;;;;;1.60;1.30;;;3.40;99.90;;;;;;4425444;32;20078;-72
2021/11/29 06:40:08;;;;;;;1.98;1.20;;;3.40;99.90;;;;;;4427461;32;20086;-72
2021/11/29 06:42:34;;;;;;;2.55;1.65;;;3.40;99.90;;;;;;4437623;32;20064;-72
2021/11/29 06:45:00;;;;;;;1.95;1.35;;;3.40;99.90;;;;;;4425323;32;20081;-72
2021/11/29 06:47:26;;;;;;;0.80;0.80;;;3.30;99.90;;;;;;4431958;32;20473;-72
2021/11/29 06:49:52;;;;;;;0.93;0.85;;;3.40;99.90;;;;;;4427291;32;20090;-71
2021/11/29 06:52:17;;;;;;;1.55;1.02;;;3.40;99.90;;;;;;4427546;32;20161;-72
2021/11/29 06:54:46;;;;;;;0.90;0.90;;;3.40;99.90;;;;;;4421184;32;20457;-71
2021/11/29 06:57:11;;;;;;;5.32;2.00;;;3.40;99.90;;;;;;4418075;32;20093;-72
2021/11/29 06:59:37;;;;;;;1.00;1.00;;;3.40;99.90;;;;;;4412025;32;20167;-71
2021/11/29 07:02:05;;;;;;;0.55;0.55;;;3.50;99.90;;;;;;4411324;32;20469;-72
2021/11/29 07:04:31;;;;;;;6.72;1.42;;;3.50;99.90;;;;;;4418171;32;20151;-71
2021/11/29 07:06:58;;;;;;;0.73;0.70;;;3.50;99.90;;;;;;4420345;32;20195;-71
2021/11/29 07:09:24;;;;;;;2.30;1.27;;;3.60;99.90;;;;;;4411730;32;20101;-71
2021/11/29 07:11:49;;;;;;;0.68;0.68;;;3.50;99.90;;;;;;4413651;32;20447;-70
2021/11/29 07:14:15;;;;;;;0.82;0.82;;;3.50;99.90;;;;;;4410120;32;20164;-70
2021/11/29 07:16:47;;;;;;;2.22;1.25;;;3.60;99.90;;;;;;4413060;32;20104;-71
2021/11/29 07:19:14;;;;;;;1.37;0.95;;;3.60;99.90;;;;;;4415355;32;20424;-71
2021/11/29 07:21:40;;;;;;;2.78;1.08;;;3.60;99.90;;;;;;4416289;32;20171;-70
2021/11/29 07:24:06;;;;;;;0.52;0.52;;;3.60;99.90;;;;;;4408311;32;20097;-71
2021/11/29 07:26:32;;;;;;;1.08;0.98;;;3.60;99.90;;;;;;4409504;32;20118;-71
2021/11/29 07:28:57;;;;;;;2.22;1.25;;;3.60;99.90;;;;;;4411320;32;20082;-70
2021/11/29 07:31:23;;;;;;;1.15;1.05;;;3.60;99.90;;;;;;4409933;32;20073;-70
2021/11/29 07:33:49;;;;;;;4.47;2.30;;;3.50;99.90;;;;;;4414272;32;20113;-70
2021/11/29 07:36:15;;;;;;;0.50;0.50;;;3.50;99.90;;;;;;4418398;32;20158;-70
2021/11/29 07:38:41;;;;;;;1.52;1.02;;;3.50;99.90;;;;;;4417462;32;20089;-71
2021/11/29 07:41:06;;;;;;;5.18;2.35;;;3.50;99.90;;;;;;4414775;32;20093;-71
2021/11/29 07:43:32;;;;;;;1.33;1.20;;;3.60;99.90;;;;;;4413176;32;20077;-72
2021/11/29 07:45:58;;;;;;;0.75;0.75;;;3.70;99.90;;;;;;4410822;32;20102;-71
2021/11/29 07:48:23;;;;;;;0.85;0.85;;;3.60;99.90;;;;;;4411217;32;20073;-71
2021/11/29 07:50:49;;;;;;;0.50;0.50;;;3.60;99.90;;;;;;4412609;32;20116;-71
2021/11/29 07:53:14;;;;;;;1.48;1.35;;;3.60;99.90;;;;;;4412877;32;20077;-71
2021/11/29 07:55:40;;;;;;;0.45;0.45;;;3.60;99.90;;;;;;4418327;32;20086;-71
2021/11/29 07:58:06;;;;;;;0.50;0.50;;;3.70;99.90;;;;;;4412125;32;20100;-71
2021/11/29 08:00:34;;;;;;;2.25;0.93;;;3.70;99.90;;;;;;4421189;32;20510;-72
2021/11/29 08:03:03;;;;;;;1.40;1.17;;;3.80;99.90;;;;;;4415914;32;20105;-71
2021/11/29 08:05:30;;;;;;;1.20;1.05;;;3.70;99.90;;;;;;4417157;32;20222;-71
2021/11/29 08:07:57;;;;;;;0.68;0.68;;;3.80;99.90;;;;;;4416724;32;20089;-72
2021/11/29 08:10:24;;;;;;;1.92;1.45;;;3.70;99.90;;;;;;4421116;32;20073;-70
2021/11/29 08:12:50;;;;;;;1.00;1.00;;;3.70;99.90;;;;;;4411797;32;20089;-69
2021/11/29 08:15:16;;;;;;;1.12;0.77;;;3.80;99.90;;;;;;4413148;32;20716;-69
2021/11/29 08:17:43;;;;;;;1.23;1.02;;;3.80;99.90;;;;;;4416887;32;20085;-70
2021/11/29 08:20:10;;;;;;;1.62;1.52;;;3.90;99.90;;;;;;4415148;32;20097;-70
2021/11/29 08:22:35;;;;;;;2.35;1.23;;;3.80;99.90;;;;;;4411760;32;20085;-72
2021/11/29 08:25:03;;;;;;;0.60;0.60;;;3.80;99.90;;;;;;4412139;32;20069;-70
2021/11/29 08:27:29;;;;;;;0.80;0.80;;;3.90;99.90;;;;;;4413173;32;20257;-70
2021/11/29 08:29:54;;;;;;;2.00;0.90;;;4.00;99.90;;;;;;4415649;32;20081;-70
2021/11/29 08:32:20;;;;;;;18.77;2.62;;;4.00;99.90;;;;;;4421133;32;20561;-71
2021/11/29 08:34:45;;;;;;;4.43;1.42;;;4.00;99.90;;;;;;4414332;32;20093;-71
2021/11/29 08:37:12;;;;;;;3.42;1.48;;;4.00;99.90;;;;;;4418125;32;20077;-71
2021/11/29 08:39:39;;;;;;;0.93;0.93;;;3.90;99.90;;;;;;4412098;32;20180;-71
2021/11/29 08:42:05;;;;;;;1.27;1.10;;;3.80;99.90;;;;;;4414409;32;20077;-70
2021/11/29 08:44:32;;;;;;;0.75;0.68;;;3.80;99.90;;;;;;4416626;32;20078;-71
2021/11/29 08:46:57;;;;;;;0.70;0.70;;;3.80;99.90;;;;;;4419788;32;20089;-71
2021/11/29 08:49:24;;;;;;;1.35;1.25;;;3.90;99.90;;;;;;4406865;32;20167;-71
2021/11/29 08:51:51;;;;;;;1.65;1.02;;;3.80;99.90;;;;;;4397501;32;20224;-71
2021/11/29 08:54:17;;;;;;;8.30;1.65;;;3.70;99.90;;;;;;4404078;32;20441;-71
2021/11/29 08:56:46;;;;;;;2.67;1.45;;;3.70;99.90;;;;;;4407362;32;20085;-73
2021/11/29 08:59:12;;;;;;;1.27;0.93;;;3.70;99.90;;;;;;4411136;32;20429;-72
2021/11/29 09:01:38;;;;;;;1.87;0.95;;;3.80;99.90;;;;;;4402826;32;20105;-70
2021/11/29 09:04:04;;;;;;;0.80;0.80;;;3.80;99.90;;;;;;4405927;32;20066;-71
2021/11/29 09:06:29;;;;;;;1.65;1.23;;;3.90;99.90;;;;;;4397934;32;20121;-71
2021/11/29 09:08:55;;;;;;;0.65;0.62;;;3.80;99.90;;;;;;4400572;32;20092;-73
2021/11/29 09:11:20;;;;;;;0.85;0.77;;;3.90;99.90;;;;;;4406384;32;20475;-72
2021/11/29 09:13:46;;;;;;;2.47;1.27;;;3.90;99.90;;;;;;4406339;32;20124;-72
2021/11/29 09:16:14;;;;;;;10.25;0.88;;;3.90;99.90;;;;;;4404022;32;20114;-72
2021/11/29 09:18:40;;;;;;;9.80;2.03;;;3.90;99.90;;;;;;4410315;32;20126;-73
2021/11/29 09:21:06;;;;;;;0.90;0.90;;;3.80;99.90;;;;;;4413696;32;20109;-72
2021/11/29 09:23:32;;;;;;;1.10;1.00;;;3.90;99.90;;;;;;4405596;32;20066;-72
2021/11/29 09:26:00;;;;;;;0.88;0.88;;;3.90;99.90;;;;;;4407948;32;20082;-71
2021/11/29 09:28:27;;;;;;;1.10;0.52;;;4.00;99.90;;;;;;4400493;32;20093;-72
2021/11/29 09:30:53;;;;;;;0.68;0.68;;;4.10;99.90;;;;;;4398135;32;20162;-70
2021/11/29 09:33:19;;;;;;;1.58;1.08;;;4.10;99.90;;;;;;4399731;32;20638;-70
2021/11/29 09:35:45;;;;;;;0.77;0.77;;;4.10;99.90;;;;;;4397151;32;20057;-72
2021/11/29 09:38:10;;;;;;;0.88;0.88;;;4.00;99.90;;;;;;4403085;32;20092;-71
2021/11/29 09:40:39;;;;;;;10.68;1.30;;;4.00;99.90;;;;;;4396223;32;20089;-71
2021/11/29 09:43:08;;;;;;;3.03;1.33;;;4.00;99.90;;;;;;4399908;32;20553;-71
2021/11/29 09:45:34;;;;;;;0.50;0.50;;;4.10;99.90;;;;;;4400521;32;20492;-72
2021/11/29 09:48:01;;;;;;;1.02;1.00;;;4.00;99.90;;;;;;4400686;32;20443;-71
2021/11/29 09:50:27;;;;;;;1.10;1.10;;;4.00;99.90;;;;;;4407165;32;20097;-71
2021/11/29 09:52:55;;;;;;;0.68;0.68;;;4.00;99.90;;;;;;4398985;32;21071;-69
2021/11/29 09:55:23;;;;;;;0.60;0.60;;;4.00;99.90;;;;;;4399145;32;20128;-71
2021/11/29 09:57:49;;;;;;;0.47;0.47;;;4.00;99.90;;;;;;4395754;32;20491;-70
2021/11/29 10:00:21;;;;;;;3.03;1.40;;;4.00;99.90;;;;;;4401177;32;20173;-71
2021/11/29 10:02:49;;;;;;;2.87;1.08;;;4.00;99.90;;;;;;4399454;32;20316;-72
2021/11/29 10:05:15;;;;;;;2.12;1.00;;;3.90;99.90;;;;;;4395625;32;20852;-71
2021/11/29 10:07:50;;;;;;;0.80;0.80;;;4.00;99.90;;;;;;4402225;32;21992;-71
2021/11/29 10:10:25;;;;;;;5.78;1.30;;;3.90;99.90;;;;;;4404401;32;21240;-73
2021/11/29 10:12:53;;;;;;;1.25;1.20;;;4.00;99.90;;;;;;4400732;32;20235;-71
2021/11/29 10:15:37;;;;;;;0.65;0.65;;;4.10;99.90;;;;;;4404217;32;20110;-71
2021/11/29 10:18:24;;;;;;;0.52;0.52;;;4.10;99.90;;;;;;4402107;32;20089;-72
2021/11/29 10:20:54;;;;;;;0.52;0.52;;;4.30;99.90;;;;;;4400633;32;20151;-68
2021/11/29 10:23:27;;;;;;;2.10;0.85;;;4.20;99.90;;;;;;4395818;32;21357;-71
2021/11/29 10:25:52;;;;;;;0.68;0.68;;;4.10;99.90;;;;;;4395990;32;20282;-69
2021/11/29 10:28:30;;;;;;;2.37;0.82;;;4.20;99.90;;;;;;4408218;32;20105;-70
2021/11/29 10:31:24;;;;;;;0.93;0.93;;;4.30;99.90;;;;;;4397161;32;20151;-72
2021/11/29 10:34:04;;;;;;;1.55;1.20;;;4.40;99.90;;;;;;4387292;32;20117;-71
2021/11/29 10:36:33;;;;;;;0.52;0.52;;;4.40;99.90;;;;;;4391585;32;20106;-71
2021/11/29 10:39:04;;;;;;;1.00;1.00;;;4.40;99.90;;;;;;4395493;32;20168;-70
2021/11/29 10:41:36;;;;;;;1.12;1.02;;;4.30;99.90;;;;;;4396600;32;20118;-70
2021/11/29 10:44:04;;;;;;;1.00;0.75;;;4.30;99.90;;;;;;4391392;32;20105;-70
2021/11/29 10:46:32;;;;;;;0.88;0.88;;;4.40;99.90;;;;;;4401846;32;20598;-70
2021/11/29 10:49:07;;;;;;;0.60;0.60;;;4.40;99.90;;;;;;4405636;32;20069;-70
2021/11/29 10:51:34;;;;;;;2.03;0.95;;;4.40;99.90;;;;;;4410481;32;20452;-70
2021/11/29 10:54:07;;;;;;;1.37;1.27;;;4.30;99.90;;;;;;4399936;32;20540;-70
2021/11/29 10:56:35;;;;;;;0.52;0.52;;;4.30;99.90;;;;;;4403527;32;20685;-70
2021/11/29 10:59:04;;;;;;;1.10;0.77;;;4.30;99.90;;;;;;4407121;32;20358;-71
2021/11/29 11:01:33;;;;;;;1.02;0.68;;;4.30;99.90;;;;;;4401087;32;20519;-70
2021/11/29 11:03:58;;;;;;;0.70;0.70;;;4.40;99.90;;;;;;4400099;32;20159;-71
2021/11/29 11:06:33;;;;;;;1.10;1.00;;;4.40;99.90;;;;;;4397547;32;20588;-70
2021/11/29 11:08:59;;;;;;;0.75;0.75;;;4.30;99.90;;;;;;4401291;32;20509;-70
2021/11/29 11:11:28;;;;;;;5.18;1.62;;;4.30;99.90;;;;;;4408137;32;20315;-71
2021/11/29 11:14:00;;;;;;;1.08;1.00;;;4.20;99.90;;;;;;4403280;32;20097;-70
2021/11/29 11:16:53;;;;;;;1.27;0.80;;;4.20;99.90;;;;;;4405119;32;20097;-70
2021/11/29 11:19:24;;;;;;;0.75;0.75;;;4.30;99.90;;;;;;4400900;32;21458;-70
2021/11/29 11:21:54;;;;;;;0.60;0.60;;;4.40;99.90;;;;;;4406941;32;20283;-71
2021/11/29 11:24:23;;;;;;;4.95;1.37;;;4.40;99.90;;;;;;4411366;32;20112;-71
2021/11/29 11:26:50;;;;;;;1.12;0.93;;;4.40;99.90;;;;;;4414958;32;20073;-71
2021/11/29 11:29:36;;;;;;;0.95;0.85;;;4.40;99.90;;;;;;4413210;32;20089;-70
2021/11/29 11:32:12;;;;;;;0.60;0.60;;;4.40;99.90;;;;;;4417563;32;20428;-70
2021/11/29 11:34:40;;;;;;;1.45;1.25;;;4.30;99.90;;;;;;4416906;32;20401;-71
2021/11/29 11:37:06;;;;;;;1.67;1.25;;;4.30;99.90;;;;;;4413463;32;20074;-69
2021/11/29 11:39:32;;;;;;;0.88;0.88;;;4.30;99.90;;;;;;4409887;32;20264;-69
2021/11/29 11:41:58;;;;;;;1.48;1.37;;;4.40;99.90;;;;;;4412666;32;20077;-70
2021/11/29 11:44:25;;;;;;;1.80;0.93;;;4.40;99.90;;;;;;4416719;32;20076;-70
2021/11/29 11:46:51;;;;;;;1.75;1.17;;;4.50;99.90;;;;;;4412867;32;20085;-70
2021/11/29 11:49:17;;;;;;;9.05;0.90;;;4.50;99.90;;;;;;4411408;32;20093;-69
2021/11/29 11:51:42;;;;;;;0.90;0.68;;;4.60;99.90;;;;;;4407652;32;20061;-70
2021/11/29 11:54:08;;;;;;;1.02;0.95;;;4.60;99.90;;;;;;4405153;32;20463;-70
2021/11/29 11:56:34;;;;;;;0.40;0.40;;;4.70;99.90;;;;;;4389236;32;20460;-71
2021/11/29 11:59:14;;;;;;;1.67;0.88;;;4.70;99.90;;;;;;4386481;32;20672;-71
2021/11/29 12:01:43;;;;;;;8.60;1.27;;;4.80;99.90;;;;;;4381961;32;20938;-72
2021/11/29 12:04:11;;;;;;;4.57;0.85;;;4.60;99.90;;;;;;4386072;32;20435;-72
2021/11/29 12:06:40;;;;;;;4.82;1.50;;;4.60;99.90;;;;;;4388298;32;20160;-72
2021/11/29 12:09:07;;;;;;;2.28;0.77;;;4.60;99.90;;;;;;4391776;32;20130;-71
2021/11/29 12:11:39;;;;;;;0.70;0.70;;;4.50;99.90;;;;;;4386925;32;20084;-71
2021/11/29 12:14:31;;;;;;;1.95;0.82;;;4.50;99.90;;;;;;4395177;32;20163;-71
2021/11/29 12:17:16;;;;;;;0.30;0.30;;;4.40;99.90;;;;;;4392133;32;20270;-71
2021/11/29 12:19:43;;;;;;;4.30;1.67;;;4.50;99.90;;;;;;4401855;32;20165;-71
2021/11/29 12:22:20;;;;;;;0.60;0.60;;;4.70;99.90;;;;;;4396066;32;20085;-71
2021/11/29 12:24:52;;;;;;;0.60;0.60;;;4.70;99.90;;;;;;4395834;32;20149;-70
2021/11/29 12:27:18;;;;;;;0.65;0.57;;;4.70;99.90;;;;;;4398615;32;20092;-70
2021/11/29 12:29:55;;;;;;;0.62;0.62;;;4.90;99.90;;;;;;4402106;32;20065;-70
2021/11/29 12:32:23;;;;;;;0.60;0.60;;;4.90;99.90;;;;;;4401632;32;20089;-70
2021/11/29 12:34:54;;;;;;;0.60;0.60;;;4.90;99.90;;;;;;4402937;32;21135;-70
2021/11/29 12:37:22;;;;;;;0.43;0.43;;;4.90;99.90;;;;;;4402561;32;20089;-71
2021/11/29 12:39:54;;;;;;;0.57;0.57;;;4.90;99.90;;;;;;4401824;32;20093;-69
2021/11/29 12:42:22;;;;;;;0.73;0.73;;;4.70;99.90;;;;;;4405043;32;20192;-70
2021/11/29 12:44:50;;;;;;;0.40;0.40;;;4.80;99.90;;;;;;4397359;32;20093;-70
2021/11/29 12:47:20;;;;;;;0.77;0.68;;;4.90;99.90;;;;;;4391763;32;20096;-71
2021/11/29 12:49:46;;;;;;;0.50;0.50;;;5.10;99.90;;;;;;4403339;32;20133;-70
2021/11/29 12:52:36;;;;;;;0.52;0.52;;;5.30;99.90;;;;;;4399897;32;20111;-69
2021/11/29 12:55:05;;;;;;;1.50;0.93;;;5.60;99.90;;;;;;4402445;32;20273;-71
2021/11/29 12:57:36;;;;;;;0.40;0.40;;;6.00;99.90;;;;;;4401787;32;20563;-71
2021/11/29 13:00:10;;;;;;;0.52;0.52;;;6.20;99.90;;;;;;4405405;32;20129;-71